Time;durP1;ratioP1;P1;durP2;ratioP2;P2;SDS_P1;SDS_P2;PMS_P1;PMS_P2;Temp;Humidity;BMP_temperature;BMP_pressure;BME280_temperature;BME280_humidity;BME280_pressure;Samples;Min_cycle;Max_cycle;Signal;HPM_P1;HPM_P2
2021/11/06 00:00:10;;;;;;;9.52;6.85;;;;;;;0.39;100.00;94089.44;2097693;28;20036;-86
2021/11/06 00:01:11;;;;;;;11.18;6.88;;;;;;;0.41;100.00;94088.03;2104942;27;20016;-88
2021/11/06 00:02:15;;;;;;;6.82;5.88;;;;;;;0.47;100.00;94088.56;2105801;28;20023;-87
2021/11/06 00:03:16;;;;;;;7.82;6.18;;;;;;;0.62;100.00;94095.84;2107798;28;20032;-86
2021/11/06 00:04:17;;;;;;;8.23;6.65;;;;;;;0.59;100.00;94093.09;2111562;28;20023;-87
2021/11/06 00:05:18;;;;;;;10.15;6.72;;;;;;;0.54;100.00;94088.03;2122821;27;20578;-86
2021/11/06 00:06:19;;;;;;;7.78;6.50;;;;;;;0.49;100.00;94095.06;2118078;27;20019;-86
2021/11/06 00:07:20;;;;;;;9.32;6.82;;;;;;;0.42;100.00;94092.19;2112767;28;20464;-85
2021/11/06 00:08:21;;;;;;;9.15;6.63;;;;;;;0.37;100.00;94089.78;2105654;28;20036;-87
2021/11/06 00:09:22;;;;;;;8.30;6.32;;;;;;;0.42;100.00;94094.81;2103829;28;20016;-87
2021/11/06 00:10:23;;;;;;;8.85;6.53;;;;;;;0.37;100.00;94096.91;2105596;28;20118;-86
2021/11/06 00:11:24;;;;;;;7.78;6.18;;;;;;;0.61;100.00;94091.66;2100720;27;20056;-87
2021/11/06 00:12:26;;;;;;;8.77;6.53;;;;;;;0.64;100.00;94092.88;2112765;28;20035;-87
2021/11/06 00:13:27;;;;;;;8.57;6.93;;;;;;;0.66;100.00;94094.09;2101537;28;20026;-87
2021/11/06 00:14:28;;;;;;;8.95;6.65;;;;;;;0.58;100.00;94088.94;2095055;28;20021;-86
2021/11/06 00:15:29;;;;;;;7.70;6.32;;;;;;;0.55;100.00;94087.72;2102611;28;20012;-87
2021/11/06 00:16:30;;;;;;;8.95;6.45;;;;;;;0.63;100.00;94102.63;2097733;28;20047;-85
2021/11/06 00:17:32;;;;;;;9.73;6.60;;;;;;;0.68;100.00;94094.50;2104653;28;20595;-85
2021/11/06 00:18:33;;;;;;;8.00;6.80;;;;;;;0.70;100.00;94092.34;2101095;28;20097;-86
2021/11/06 00:19:34;;;;;;;8.02;6.85;;;;;;;0.65;100.00;94091.75;2096622;28;20024;-87
2021/11/06 00:20:35;;;;;;;8.60;6.72;;;;;;;0.67;100.00;94095.63;2100835;28;20111;-87
2021/11/06 00:21:36;;;;;;;9.77;6.90;;;;;;;0.58;100.00;94099.44;2096431;28;20021;-86
2021/11/06 00:22:37;;;;;;;9.02;6.88;;;;;;;0.49;100.00;94102.94;2107189;28;20024;-86
2021/11/06 00:23:38;;;;;;;9.77;7.72;;;;;;;0.53;100.00;94099.63;2101340;28;20672;-87
2021/11/06 00:24:39;;;;;;;9.65;6.72;;;;;;;0.52;100.00;94090.22;2103540;28;20024;-86
2021/11/06 00:25:41;;;;;;;10.07;7.18;;;;;;;0.52;100.00;94092.84;2111638;28;20016;-86
2021/11/06 00:26:42;;;;;;;8.75;6.57;;;;;;;0.58;100.00;94094.94;2097503;28;20020;-86
2021/11/06 00:27:44;;;;;;;10.48;7.65;;;;;;;0.63;100.00;94093.97;2101694;28;20529;-86
2021/11/06 00:28:45;;;;;;;10.77;7.22;;;;;;;0.73;100.00;94090.88;2113192;28;20145;-86
2021/11/06 00:29:46;;;;;;;7.85;6.63;;;;;;;0.72;100.00;94095.38;2119687;27;20084;-86
2021/11/06 00:30:47;;;;;;;9.55;7.10;;;;;;;0.80;100.00;94091.13;2121243;27;20107;-87
2021/11/06 00:31:49;;;;;;;9.13;7.43;;;;;;;0.71;100.00;94088.59;2112866;28;20724;-88
2021/11/06 00:32:50;;;;;;;9.07;6.97;;;;;;;0.64;100.00;94098.13;2122058;27;20011;-86
2021/11/06 00:33:51;;;;;;;7.78;6.97;;;;;;;0.64;100.00;94093.63;2115398;27;20113;-88
2021/11/06 00:34:52;;;;;;;8.48;6.95;;;;;;;0.64;100.00;94092.88;2098714;28;20021;-87
2021/11/06 00:35:53;;;;;;;10.15;7.32;;;;;;;0.82;100.00;94091.53;2102986;28;20085;-86
2021/11/06 00:36:54;;;;;;;10.10;7.30;;;;;;;0.89;100.00;94094.41;2113275;28;20092;-86
2021/11/06 00:37:55;;;;;;;11.27;7.40;;;;;;;0.85;100.00;94090.91;2113514;28;20608;-87
2021/11/06 00:38:57;;;;;;;9.40;7.50;;;;;;;0.94;100.00;94088.16;2112646;27;20018;-85
2021/11/06 00:39:58;;;;;;;8.00;6.78;;;;;;;0.92;100.00;94085.84;2104736;28;20022;-84
2021/11/06 00:40:59;;;;;;;9.27;7.45;;;;;;;0.89;100.00;94088.38;2101303;28;20174;-86
2021/11/06 00:42:00;;;;;;;8.35;6.90;;;;;;;0.87;100.00;94080.78;2101646;28;20008;-87
2021/11/06 00:43:01;;;;;;;9.23;7.22;;;;;;;0.82;100.00;94088.91;2103934;28;20159;-86
2021/11/06 00:44:02;;;;;;;8.57;7.45;;;;;;;0.83;100.00;94092.31;2103767;28;20043;-86
2021/11/06 00:45:07;;;;;;;7.97;6.45;;;;;;;0.75;100.00;94086.09;2104871;27;20043;-87
2021/11/06 00:46:08;;;;;;;10.93;7.47;;;;;;;0.78;100.00;94089.91;2113445;27;20721;-86
2021/11/06 00:47:11;;;;;;;10.45;7.43;;;;;;;0.78;100.00;94085.41;2112548;28;20027;-87
2021/11/06 00:48:12;;;;;;;8.35;6.32;;;;;;;0.81;100.00;94087.38;2102158;28;20170;-86
2021/11/06 00:49:12;;;;;;;8.02;6.43;;;;;;;0.89;100.00;94081.25;2096107;28;20082;-86
2021/11/06 00:50:16;;;;;;;14.10;7.00;;;;;;;0.78;100.00;94080.13;2110952;27;20016;-86
2021/11/06 00:51:17;;;;;;;8.68;7.00;;;;;;;0.82;100.00;94088.91;2121577;27;20666;-86
2021/11/06 00:52:18;;;;;;;8.77;7.07;;;;;;;0.80;100.00;94095.63;2112717;28;20024;-86
2021/11/06 00:53:19;;;;;;;8.27;7.20;;;;;;;0.80;100.00;94088.50;2096894;28;20132;-85
2021/11/06 00:54:20;;;;;;;7.85;6.95;;;;;;;0.71;100.00;94091.22;2104268;28;20413;-86
2021/11/06 00:55:22;;;;;;;10.57;7.05;;;;;;;0.68;100.00;94089.25;2106994;28;20016;-87
2021/11/06 00:56:23;;;;;;;9.45;6.75;;;;;;;0.73;100.00;94089.03;2103590;28;20027;-87
2021/11/06 00:57:24;;;;;;;9.38;7.00;;;;;;;0.76;100.00;94092.88;2104698;28;20066;-86
2021/11/06 00:58:25;;;;;;;10.02;6.85;;;;;;;0.80;100.00;94087.72;2102291;28;20026;-86
2021/11/06 00:59:26;;;;;;;11.70;8.43;;;;;;;0.89;100.00;94098.91;2096268;28;20013;-87
2021/11/06 01:00:27;;;;;;;8.23;6.75;;;;;;;0.92;100.00;94085.06;2102747;28;20368;-85
2021/11/06 01:01:28;;;;;;;7.82;6.65;;;;;;;0.96;100.00;94091.97;2104373;28;20550;-87
2021/11/06 01:02:29;;;;;;;7.72;6.68;;;;;;;0.99;100.00;94091.31;2112859;28;20058;-88
2021/11/06 01:03:30;;;;;;;8.88;7.00;;;;;;;0.97;100.00;94096.16;2104380;28;20103;-86
2021/11/06 01:04:31;;;;;;;7.75;6.28;;;;;;;0.88;100.00;94094.72;2105880;28;20020;-88
2021/11/06 01:05:32;;;;;;;8.93;7.43;;;;;;;0.94;100.00;94093.41;2113162;27;20055;-86
2021/11/06 01:06:33;;;;;;;8.70;6.68;;;;;;;1.05;100.00;94096.34;2112604;28;20063;-85
2021/11/06 01:07:35;;;;;;;8.20;6.95;;;;;;;0.95;100.00;94097.56;2104338;28;20069;-86
2021/11/06 01:08:36;;;;;;;9.50;6.75;;;;;;;0.94;100.00;94096.81;2103778;28;20047;-86
2021/11/06 01:09:37;;;;;;;9.00;7.30;;;;;;;0.82;100.00;94099.44;2106818;28;20037;-87
2021/11/06 01:10:38;;;;;;;9.82;7.15;;;;;;;0.84;100.00;94099.91;2114781;28;20032;-89
2021/11/06 01:11:40;;;;;;;7.32;6.57;;;;;;;0.89;100.00;94098.91;2106603;28;20031;-86
2021/11/06 01:12:42;;;;;;;7.78;6.97;;;;;;;0.85;100.00;94093.53;2106579;28;20496;-85
2021/11/06 01:13:44;;;;;;;9.35;7.28;;;;;;;0.94;100.00;94093.41;2106816;28;20047;-89
2021/11/06 01:14:45;;;;;;;11.30;7.78;;;;;;;0.80;100.00;94095.63;2106785;28;20065;-86
2021/11/06 01:15:46;;;;;;;9.63;7.78;;;;;;;0.95;100.00;94087.81;2106360;28;20062;-88
2021/11/06 01:16:47;;;;;;;8.85;6.97;;;;;;;1.01;100.00;94091.00;2098156;28;20027;-87
2021/11/06 01:17:49;;;;;;;9.07;7.32;;;;;;;0.93;100.00;94099.78;2103638;28;20111;-89
2021/11/06 01:18:50;;;;;;;9.18;7.28;;;;;;;1.16;100.00;94090.31;2114663;28;20464;-86
2021/11/06 01:19:51;;;;;;;8.77;7.28;;;;;;;1.07;100.00;94094.94;2112060;28;20023;-88
2021/11/06 01:20:52;;;;;;;8.25;7.35;;;;;;;1.04;100.00;94089.56;2106499;28;20142;-88
2021/11/06 01:21:53;;;;;;;11.20;7.82;;;;;;;0.97;100.00;94093.53;2106403;28;20468;-88
2021/11/06 01:22:54;;;;;;;10.30;7.47;;;;;;;0.97;100.00;94090.91;2114826;27;20015;-86
2021/11/06 01:23:55;;;;;;;10.95;7.53;;;;;;;0.95;100.00;94092.31;2106109;28;20031;-87
2021/11/06 01:24:56;;;;;;;13.82;8.80;;;;;;;0.88;100.00;94095.50;2114909;28;20039;-86
2021/11/06 01:25:57;;;;;;;13.35;8.45;;;;;;;0.91;100.00;94086.94;2101946;28;20111;-86
2021/11/06 01:26:59;;;;;;;11.35;8.30;;;;;;;1.08;100.00;94095.69;2098297;28;20372;-86
2021/11/06 01:27:59;;;;;;;11.32;8.18;;;;;;;1.12;100.00;94088.69;2098167;28;20052;-86
2021/11/06 01:29:01;;;;;;;10.15;8.02;;;;;;;1.01;100.00;94088.38;2106183;28;20484;-87
2021/11/06 01:30:04;;;;;;;9.85;8.13;;;;;;;1.06;100.00;94087.38;2106480;28;20030;-86
2021/11/06 01:31:05;;;;;;;12.02;8.10;;;;;;;1.14;100.00;94091.72;2105006;28;20042;-86
2021/11/06 01:32:07;;;;;;;9.82;7.88;;;;;;;1.16;100.00;94092.94;2109781;28;20093;-87
2021/11/06 01:33:08;;;;;;;11.55;8.70;;;;;;;1.14;100.00;94083.84;2098092;28;20025;-86
2021/11/06 01:34:09;;;;;;;11.02;9.02;;;;;;;1.19;100.00;94087.03;2106509;28;20020;-85
2021/11/06 01:35:11;;;;;;;11.18;8.60;;;;;;;1.22;100.00;94094.25;2106541;28;20531;-87
2021/11/06 01:36:13;;;;;;;10.98;8.13;;;;;;;1.17;100.00;94091.06;2106420;28;20031;-86
2021/11/06 01:37:14;;;;;;;10.00;8.10;;;;;;;1.12;100.00;94086.81;2112488;28;20030;-86
2021/11/06 01:38:15;;;;;;;11.15;7.97;;;;;;;1.16;100.00;94079.78;2100385;28;20056;-87
2021/11/06 01:39:16;;;;;;;11.13;9.05;;;;;;;1.23;100.00;94085.25;2106355;28;20500;-86
2021/11/06 01:40:20;;;;;;;11.75;9.07;;;;;;;1.27;100.00;94082.72;2097959;28;20062;-88
2021/11/06 01:41:21;;;;;;;11.20;8.68;;;;;;;1.29;100.00;94080.53;2107306;28;20020;-86
2021/11/06 01:42:23;;;;;;;10.38;8.68;;;;;;;1.15;100.00;94074.84;2123105;27;20050;-87
2021/11/06 01:43:24;;;;;;;12.43;8.65;;;;;;;1.10;100.00;94081.13;2115120;27;20043;-86
2021/11/06 01:44:25;;;;;;;10.85;9.18;;;;;;;1.08;100.00;94085.16;2114772;28;20755;-87
2021/11/06 01:45:26;;;;;;;10.60;9.05;;;;;;;1.13;100.00;94082.31;2106180;28;20116;-85
2021/11/06 01:46:29;;;;;;;11.10;8.95;;;;;;;1.19;100.00;94078.38;2098012;28;20020;-87
2021/11/06 01:47:30;;;;;;;13.07;9.90;;;;;;;1.38;100.00;94085.66;2106088;28;20510;-87
2021/11/06 01:48:32;;;;;;;12.20;9.63;;;;;;;1.38;100.00;94083.78;2106321;28;20031;-88
2021/11/06 01:49:33;;;;;;;14.45;9.70;;;;;;;1.39;100.00;94089.84;2113000;28;20106;-87
2021/11/06 01:50:34;;;;;;;11.55;9.43;;;;;;;1.28;100.00;94078.25;2106368;28;20039;-87
2021/11/06 01:51:35;;;;;;;13.30;9.15;;;;;;;1.25;100.00;94087.56;2098020;28;20020;-85
2021/11/06 01:52:36;;;;;;;12.73;9.25;;;;;;;1.42;100.00;94078.63;2106365;28;20042;-86
2021/11/06 01:53:37;;;;;;;15.32;10.63;;;;;;;1.35;100.00;94081.81;2106333;28;20467;-86
2021/11/06 01:54:38;;;;;;;12.77;10.15;;;;;;;1.34;100.00;94084.78;2109491;28;20831;-86
2021/11/06 01:55:40;;;;;;;16.58;11.57;;;;;;;1.36;100.00;94085.22;2114687;28;20073;-87
2021/11/06 01:56:42;;;;;;;16.45;10.98;;;;;;;1.36;100.00;94085.22;2122509;27;20019;-86
2021/11/06 01:57:45;;;;;;;17.35;11.50;;;;;;;1.35;100.00;94086.31;2114658;28;20019;-87
2021/11/06 01:58:46;;;;;;;18.15;11.77;;;;;;;1.36;100.00;94083.38;2107034;28;20036;-88
2021/11/06 01:59:47;;;;;;;15.77;11.57;;;;;;;1.36;100.00;94083.38;2108073;28;20023;-88
2021/11/06 02:00:49;;;;;;;19.38;12.20;;;;;;;1.30;100.00;94079.44;2106268;27;20511;-87
2021/11/06 02:01:51;;;;;;;16.50;11.40;;;;;;;1.29;100.00;94080.53;2109693;28;20024;-87
2021/11/06 02:02:52;;;;;;;16.25;11.13;;;;;;;1.28;100.00;94084.28;2096899;28;20114;-88
2021/11/06 02:03:53;;;;;;;18.60;12.38;;;;;;;1.41;100.00;94088.41;2106482;28;20107;-88
2021/11/06 02:04:54;;;;;;;20.48;13.45;;;;;;;1.44;100.00;94082.44;2097834;28;20523;-87
2021/11/06 02:05:55;;;;;;;18.95;11.50;;;;;;;1.34;100.00;94079.53;2106397;28;20059;-87
2021/11/06 02:08:25;;;;;;;;;;;;;;;1.35;100.00;94081.81;2149176;27;20468;-88
2021/11/06 02:09:26;;;;;;;20.20;11.15;;;;;;;1.34;100.00;94082.94;2139335;27;19914;-91
2021/11/06 02:10:27;;;;;;;17.67;11.98;;;;;;;1.31;100.00;94082.81;2139520;27;20022;-86
2021/11/06 02:11:28;;;;;;;20.80;11.95;;;;;;;1.32;100.00;94085.13;2126957;27;20470;-86
2021/11/06 02:12:29;;;;;;;19.65;11.48;;;;;;;1.41;100.00;94083.13;2107010;28;20023;-86
2021/11/06 02:13:31;;;;;;;22.58;11.43;;;;;;;1.38;100.00;94088.31;2112573;27;20055;-87
2021/11/06 02:14:32;;;;;;;18.67;11.88;;;;;;;1.39;100.00;94084.56;2122177;27;20045;-88
2021/11/06 02:15:33;;;;;;;21.98;11.88;;;;;;;1.43;100.00;94083.56;2130858;27;20490;-87
2021/11/06 02:16:34;;;;;;;23.55;12.80;;;;;;;1.42;100.00;94084.66;2126743;27;20027;-87
2021/11/06 02:17:35;;;;;;;38.22;13.45;;;;;;;1.41;100.00;94077.09;2118046;27;20023;-87
2021/11/06 02:18:36;;;;;;;38.00;12.77;;;;;;;1.47;100.00;94073.91;2135397;27;20816;-85
2021/11/06 02:19:38;;;;;;;24.55;13.27;;;;;;;1.38;100.00;94081.16;2130647;27;20015;-86
2021/11/06 02:20:44;;;;;;;25.20;12.93;;;;;;;1.38;100.00;94072.50;2122232;27;20016;-86
2021/11/06 02:21:46;;;;;;;23.23;12.75;;;;;;;1.42;100.00;94076.75;2116224;27;20465;-86
2021/11/06 02:22:48;;;;;;;44.00;12.90;;;;;;;1.37;100.00;94070.97;2122171;27;20068;-87
2021/11/06 02:23:50;;;;;;;39.97;12.13;;;;;;;1.30;100.00;94071.53;2121684;28;20019;-88
2021/11/06 02:24:53;;;;;;;43.30;12.45;;;;;;;1.25;100.00;94071.75;2105161;28;20400;-86
2021/11/06 02:25:54;;;;;;;49.70;13.43;;;;;;;1.30;100.00;94070.75;2122409;27;20064;-90
2021/11/06 02:26:55;;;;;;;38.05;12.10;;;;;;;1.25;100.00;94061.22;2121945;28;20023;-85
2021/11/06 02:27:56;;;;;;;38.10;12.90;;;;;;;1.18;100.00;94063.66;2113706;27;20103;-86
2021/11/06 02:29:00;;;;;;;24.08;11.07;;;;;;;1.28;100.00;94062.44;2121791;27;20407;-84
2021/11/06 02:30:03;;;;;;;29.83;10.43;;;;;;;1.26;100.00;94060.88;2113727;28;20045;-88
2021/11/06 02:31:05;;;;;;;31.52;10.70;;;;;;;1.22;100.00;94064.50;2114079;27;20035;-86
2021/11/06 02:32:07;;;;;;;17.20;8.88;;;;;;;1.23;100.00;94055.53;2128943;27;20479;-86
2021/11/06 02:33:08;;;;;;;24.10;11.43;;;;;;;1.24;100.00;94062.31;2132837;27;20042;-86
2021/11/06 02:34:10;;;;;;;36.78;11.40;;;;;;;1.18;100.00;94058.38;2139026;27;20066;-90
2021/11/06 02:35:12;;;;;;;36.10;10.93;;;;;;;1.21;100.00;94058.47;2118457;28;20020;-85
2021/11/06 02:36:13;;;;;;;23.83;11.75;;;;;;;1.19;100.00;94057.31;2113771;27;20024;-86
2021/11/06 02:37:14;;;;;;;25.80;10.63;;;;;;;1.21;100.00;94053.22;2130033;27;20019;-86
2021/11/06 02:38:15;;;;;;;40.75;10.15;;;;;;;1.18;100.00;94055.75;2121711;27;20016;-86
2021/11/06 02:39:16;;;;;;;31.00;10.65;;;;;;;1.22;100.00;94057.38;2117736;28;20016;-85
2021/11/06 02:40:17;;;;;;;36.55;10.13;;;;;;;1.20;100.00;94051.69;2113594;28;20048;-88
2021/11/06 02:41:18;;;;;;;41.35;11.13;;;;;;;1.16;100.00;94056.09;2113288;28;20024;-88
2021/11/06 02:42:19;;;;;;;31.23;12.15;;;;;;;1.18;100.00;94056.50;2113249;28;20054;-88
2021/11/06 02:43:21;;;;;;;33.30;11.75;;;;;;;1.20;100.00;94054.31;2110835;27;20031;-87
2021/11/06 02:44:21;;;;;;;25.60;10.57;;;;;;;1.21;100.00;94047.94;2121873;27;20062;-90
2021/11/06 02:45:22;;;;;;;24.55;10.52;;;;;;;1.17;100.00;94047.09;2121770;27;20687;-85
2021/11/06 02:46:24;;;;;;;27.90;10.80;;;;;;;1.17;100.00;94047.09;2122063;27;20062;-86
2021/11/06 02:47:25;;;;;;;23.10;10.35;;;;;;;1.25;100.00;94048.81;2114760;28;20045;-87
2021/11/06 02:48:26;;;;;;;29.38;10.32;;;;;;;1.14;100.00;94045.13;2113264;28;20027;-87
2021/11/06 02:49:27;;;;;;;18.05;9.85;;;;;;;1.31;100.00;94044.06;2121777;28;20030;-87
2021/11/06 02:50:29;;;;;;;28.70;9.90;;;;;;;1.17;100.00;94051.59;2105055;28;20027;-89
2021/11/06 02:51:30;;;;;;;16.30;10.10;;;;;;;1.18;100.00;94045.97;2113450;27;20071;-86
2021/11/06 02:52:31;;;;;;;20.20;10.65;;;;;;;1.22;100.00;94051.34;2113163;28;20194;-89
2021/11/06 02:53:32;;;;;;;25.70;10.93;;;;;;;1.18;100.00;94043.34;2113259;28;20492;-85
2021/11/06 02:54:33;;;;;;;18.50;10.43;;;;;;;1.18;100.00;94045.22;2121911;28;20019;-87
2021/11/06 02:55:34;;;;;;;22.20;10.55;;;;;;;1.10;100.00;94048.72;2104857;28;20024;-85
2021/11/06 02:56:35;;;;;;;17.85;9.93;;;;;;;1.07;100.00;94052.06;2104910;28;20545;-90
2021/11/06 02:57:36;;;;;;;22.85;11.00;;;;;;;1.00;100.00;94052.59;2096572;28;20028;-86
2021/11/06 02:58:37;;;;;;;16.50;10.70;;;;;;;1.00;100.00;94058.63;2111262;28;20361;-84
2021/11/06 02:59:38;;;;;;;17.75;10.23;;;;;;;1.13;100.00;94056.75;2109231;28;20066;-86
2021/11/06 03:00:40;;;;;;;18.63;10.50;;;;;;;1.08;100.00;94061.47;2105178;28;20546;-87
2021/11/06 03:01:43;;;;;;;17.92;10.85;;;;;;;0.95;100.00;94052.81;2108261;28;20578;-88
2021/11/06 03:02:45;;;;;;;21.40;11.75;;;;;;;1.00;100.00;94060.50;2110167;28;20586;-86
2021/11/06 03:03:46;;;;;;;18.63;10.43;;;;;;;0.93;100.00;94055.81;2104944;28;20489;-86
2021/11/06 03:04:47;;;;;;;21.75;10.75;;;;;;;0.88;100.00;94057.88;2113555;27;20031;-88
2021/11/06 03:05:48;;;;;;;16.85;10.27;;;;;;;0.89;100.00;94062.06;2130189;27;20030;-86
2021/11/06 03:06:49;;;;;;;15.43;10.00;;;;;;;0.90;100.00;94053.81;2121705;27;20019;-87
2021/11/06 03:07:51;;;;;;;16.08;9.35;;;;;;;0.81;100.00;94055.03;2113149;28;20078;-86
2021/11/06 03:08:52;;;;;;;16.85;9.60;;;;;;;0.75;100.00;94050.00;2113430;27;20020;-88
2021/11/06 03:09:53;;;;;;;13.48;9.68;;;;;;;0.72;100.00;94049.91;2113084;28;20055;-88
2021/11/06 03:10:54;;;;;;;16.38;10.23;;;;;;;0.58;100.00;94058.13;2104816;28;20031;-88
2021/11/06 03:11:55;;;;;;;16.50;9.82;;;;;;;0.47;100.00;94051.75;2112400;28;20031;-85
2021/11/06 03:12:57;;;;;;;18.25;9.60;;;;;;;0.37;100.00;94057.44;2125859;28;20031;-84
2021/11/06 03:14:01;;;;;;;14.02;9.05;;;;;;;0.23;100.00;94047.25;2116045;27;20020;-86
2021/11/06 03:15:03;;;;;;;17.15;9.77;;;;;;;0.22;100.00;94050.94;2122161;27;20027;-87
2021/11/06 03:16:08;;;;;;;15.32;9.95;;;;;;;0.15;100.00;94054.13;2121852;27;20031;-85
2021/11/06 03:17:10;;;;;;;14.93;9.98;;;;;;;0.12;100.00;94048.75;2113522;28;20019;-85
2021/11/06 03:18:11;;;;;;;13.93;9.60;;;;;;;0.13;100.00;94050.28;2113273;28;20028;-87
2021/11/06 03:19:12;;;;;;;13.20;9.25;;;;;;;0.04;100.00;94053.00;2102611;28;20048;-85
2021/11/06 03:20:14;;;;;;;14.93;10.45;;;;;;;0.05;100.00;94053.81;2107220;28;20031;-87
2021/11/06 03:21:18;;;;;;;13.73;8.80;;;;;;;0.03;100.00;94055.97;2101778;28;20029;-87
2021/11/06 03:22:19;;;;;;;14.63;8.75;;;;;;;0.02;100.00;94057.84;2099562;28;20017;-87
2021/11/06 03:23:20;;;;;;;15.02;9.57;;;;;;;-0.01;100.00;94059.25;2099121;28;20187;-85
2021/11/06 03:24:21;;;;;;;12.75;8.77;;;;;;;-0.08;100.00;94064.28;2107388;28;20481;-86
2021/11/06 03:25:22;;;;;;;15.70;9.18;;;;;;;-0.07;100.00;94059.78;2099315;28;20025;-88
2021/11/06 03:26:23;;;;;;;14.77;9.20;;;;;;;-0.03;100.00;94061.44;2100573;28;20021;-89
2021/11/06 03:27:24;;;;;;;11.73;8.43;;;;;;;-0.02;100.00;94055.09;2105940;28;20020;-88
2021/11/06 03:28:25;;;;;;;15.45;8.80;;;;;;;-0.13;100.00;94055.81;2091058;28;20104;-87
2021/11/06 03:29:26;;;;;;;12.75;9.27;;;;;;;-0.06;100.00;94062.06;2110565;28;20046;-84
2021/11/06 03:30:27;;;;;;;13.52;9.15;;;;;;;-0.01;100.00;94061.09;2136005;27;20953;-85
2021/11/06 03:31:28;;;;;;;14.43;9.15;;;;;;;-0.09;100.00;94056.69;2118714;27;20077;-85
2021/11/06 03:32:29;;;;;;;12.45;8.18;;;;;;;-0.14;100.00;94070.03;2115730;27;20560;-88
2021/11/06 03:33:30;;;;;;;13.23;9.38;;;;;;;-0.13;100.00;94063.69;2115747;28;20081;-86
2021/11/06 03:34:31;;;;;;;12.25;9.15;;;;;;;-0.33;100.00;94058.16;2107305;28;20066;-88
2021/11/06 03:35:32;;;;;;;13.27;8.30;;;;;;;-0.33;100.00;94068.69;2107565;28;20023;-86
2021/11/06 03:36:33;;;;;;;12.70;8.02;;;;;;;-0.47;100.00;94065.56;2115843;28;20669;-85
2021/11/06 03:37:34;;;;;;;13.15;8.80;;;;;;;-0.41;100.00;94058.25;2124115;27;20632;-88
2021/11/06 03:38:35;;;;;;;11.90;8.30;;;;;;;-0.47;100.00;94057.69;2115917;28;20559;-85
2021/11/06 03:39:36;;;;;;;12.35;8.32;;;;;;;-0.43;100.00;94058.59;2111375;28;20057;-87
2021/11/06 03:40:37;;;;;;;11.55;8.07;;;;;;;-0.44;100.00;94053.63;2115854;28;20471;-85
2021/11/06 03:41:39;;;;;;;12.27;7.75;;;;;;;-0.48;100.00;94053.53;2098882;28;20726;-85
2021/11/06 03:42:41;;;;;;;15.45;9.55;;;;;;;-0.49;100.00;94057.22;2106951;28;20056;-85
2021/11/06 03:43:42;;;;;;;12.40;8.40;;;;;;;-0.49;100.00;94053.84;2107699;27;20028;-87
2021/11/06 03:44:43;;;;;;;12.98;8.77;;;;;;;-0.54;100.00;94052.19;2115726;28;20055;-85
2021/11/06 03:45:44;;;;;;;14.55;8.50;;;;;;;-0.57;100.00;94058.06;2115895;28;20023;-85
2021/11/06 03:46:46;;;;;;;10.63;8.13;;;;;;;-0.53;100.00;94058.97;2107162;28;20032;-88
2021/11/06 03:47:47;;;;;;;11.32;7.78;;;;;;;-0.56;100.00;94054.38;2098959;28;20031;-85
2021/11/06 03:48:48;;;;;;;10.65;8.05;;;;;;;-0.59;100.00;94061.03;2098890;28;20031;-87
2021/11/06 03:49:49;;;;;;;11.18;7.97;;;;;;;-0.53;100.00;94062.38;2115879;28;20030;-86
2021/11/06 03:50:50;;;;;;;9.98;7.65;;;;;;;-0.55;100.00;94058.53;2115705;28;20102;-84
2021/11/06 03:51:51;;;;;;;10.60;7.38;;;;;;;-0.61;100.00;94067.69;2098774;28;20464;-85
2021/11/06 03:52:52;;;;;;;9.30;7.43;;;;;;;-0.62;100.00;94064.28;2107048;28;20486;-87
2021/11/06 03:53:53;;;;;;;11.13;8.25;;;;;;;-0.67;100.00;94061.84;2115533;27;20031;-85
2021/11/06 03:54:54;;;;;;;10.27;7.38;;;;;;;-0.60;100.00;94064.75;2115597;28;20023;-87
2021/11/06 03:55:55;;;;;;;11.35;7.45;;;;;;;-0.69;100.00;94065.91;2107389;28;20472;-84
2021/11/06 03:56:56;;;;;;;9.80;7.60;;;;;;;-0.84;100.00;94073.25;2115843;27;20082;-85
2021/11/06 03:57:57;;;;;;;9.15;7.07;;;;;;;-0.92;100.00;94068.06;2106913;28;20161;-85
2021/11/06 03:58:58;;;;;;;9.48;7.15;;;;;;;-0.90;100.00;94071.16;2112769;28;20027;-85
2021/11/06 03:59:59;;;;;;;8.75;7.18;;;;;;;-0.88;100.00;94069.75;2120848;27;20020;-85
2021/11/06 04:01:00;;;;;;;8.73;7.07;;;;;;;-0.95;100.00;94066.84;2107768;28;20047;-85
2021/11/06 04:02:02;;;;;;;8.73;6.88;;;;;;;-0.91;100.00;94072.22;2107165;28;20024;-88
2021/11/06 04:03:03;;;;;;;10.30;6.60;;;;;;;-0.78;100.00;94073.84;2107077;28;20533;-85
2021/11/06 04:04:04;;;;;;;9.32;7.65;;;;;;;-0.74;100.00;94066.88;2105644;28;20050;-85
2021/11/06 04:05:06;;;;;;;10.57;7.65;;;;;;;-0.82;100.00;94070.31;2113183;28;20159;-89
2021/11/06 04:06:07;;;;;;;9.65;6.72;;;;;;;-0.87;100.00;94065.25;2107023;28;20045;-86
2021/11/06 04:07:07;;;;;;;10.35;6.95;;;;;;;-0.88;100.00;94063.69;2107030;28;20016;-85
2021/11/06 04:08:08;;;;;;;9.05;6.32;;;;;;;-0.86;100.00;94072.81;2106660;28;20040;-86
2021/11/06 04:09:10;;;;;;;9.65;6.68;;;;;;;-0.83;100.00;94066.16;2098900;28;20033;-85
2021/11/06 04:10:12;;;;;;;9.45;6.63;;;;;;;-0.80;100.00;94076.00;2107245;28;20028;-86
2021/11/06 04:11:13;;;;;;;8.02;6.47;;;;;;;-0.83;100.00;94074.03;2124068;27;20027;-85
2021/11/06 04:12:14;;;;;;;9.60;7.00;;;;;;;-0.86;100.00;94077.28;2115307;28;20094;-84
2021/11/06 04:13:15;;;;;;;8.13;6.53;;;;;;;-0.88;100.00;94082.06;2114883;27;20555;-85
2021/11/06 04:14:16;;;;;;;8.52;7.03;;;;;;;-0.75;100.00;94073.19;2115327;28;20019;-87
2021/11/06 04:15:17;;;;;;;7.20;6.25;;;;;;;-0.90;100.00;94079.00;2107501;28;20020;-85
2021/11/06 04:16:18;;;;;;;8.18;6.68;;;;;;;-0.89;100.00;94076.06;2124163;27;20477;-86
2021/11/06 04:17:19;;;;;;;8.10;6.32;;;;;;;-0.93;100.00;94074.41;2123790;27;20027;-87
2021/11/06 04:18:20;;;;;;;8.15;6.55;;;;;;;-0.92;100.00;94078.56;2115392;28;20039;-86
2021/11/06 04:19:22;;;;;;;10.35;6.90;;;;;;;-0.95;100.00;94085.22;2100803;28;20021;-88
2021/11/06 04:20:23;;;;;;;9.32;6.68;;;;;;;-1.09;100.00;94085.47;2106904;28;20031;-88
2021/11/06 04:21:24;;;;;;;7.85;6.60;;;;;;;-1.09;100.00;94077.59;2109692;27;20027;-84
2021/11/06 04:22:25;;;;;;;8.30;6.22;;;;;;;-1.16;100.00;94072.06;2116720;27;20049;-86
2021/11/06 04:23:26;;;;;;;10.07;6.03;;;;;;;-1.12;100.00;94069.59;2105020;28;20385;-86
2021/11/06 04:24:27;;;;;;;14.57;6.57;;;;;;;-1.05;100.00;94086.38;2098573;28;20028;-88
2021/11/06 04:25:28;;;;;;;7.63;6.20;;;;;;;-0.98;100.00;94082.47;2107077;28;20131;-84
2021/11/06 04:26:29;;;;;;;8.00;6.10;;;;;;;-1.00;100.00;94074.91;2115425;28;20031;-86
2021/11/06 04:27:30;;;;;;;7.45;5.90;;;;;;;-1.04;100.00;94077.41;2115258;27;20023;-83
2021/11/06 04:28:31;;;;;;;7.30;5.85;;;;;;;-1.03;100.00;94078.94;2115346;27;20056;-85
2021/11/06 04:29:32;;;;;;;9.05;6.57;;;;;;;-1.02;100.00;94077.84;2106898;28;20089;-83
2021/11/06 04:30:33;;;;;;;7.13;6.00;;;;;;;-1.08;100.00;94081.75;2106838;28;20023;-88
2021/11/06 04:31:34;;;;;;;8.05;5.97;;;;;;;-1.11;100.00;94079.75;2114449;28;20463;-87
2021/11/06 04:32:35;;;;;;;7.15;6.20;;;;;;;-1.13;100.00;94075.94;2106731;28;20024;-86
2021/11/06 04:33:36;;;;;;;6.95;5.88;;;;;;;-1.22;100.00;94077.81;2098623;28;20111;-86
2021/11/06 04:34:38;;;;;;;8.35;5.82;;;;;;;-1.22;100.00;94081.22;2106764;28;20035;-87
2021/11/06 04:35:39;;;;;;;7.90;6.43;;;;;;;-1.18;100.00;94081.34;2090629;28;20443;-87
2021/11/06 04:36:40;;;;;;;9.73;5.85;;;;;;;-1.16;100.00;94082.56;2090126;28;20041;-84
2021/11/06 04:37:41;;;;;;;7.35;5.88;;;;;;;-1.13;100.00;94083.78;2098321;28;20028;-85
2021/11/06 04:38:42;;;;;;;6.63;5.90;;;;;;;-1.14;100.00;94088.28;2098380;28;20020;-86
2021/11/06 04:39:43;;;;;;;11.35;6.07;;;;;;;-1.10;100.00;94080.50;2090078;28;20502;-84
2021/11/06 04:40:44;;;;;;;6.47;5.78;;;;;;;-1.14;100.00;94088.28;2098360;28;20028;-86
2021/11/06 04:41:45;;;;;;;8.27;6.45;;;;;;;-1.14;100.00;94090.91;2090171;28;20082;-82
2021/11/06 04:42:46;;;;;;;6.57;5.70;;;;;;;-1.17;100.00;94096.00;2107838;27;20028;-87
2021/11/06 04:43:47;;;;;;;7.13;6.22;;;;;;;-1.24;100.00;94088.63;2115098;28;20028;-85
2021/11/06 04:44:48;;;;;;;6.47;5.60;;;;;;;-1.24;100.00;94098.34;2106822;28;20710;-86
2021/11/06 04:45:49;;;;;;;7.07;5.78;;;;;;;-1.30;100.00;94095.13;2123833;27;20128;-87